Terminal Aerodrome Forecast
Issued by NWS

Current Version | Previous Version | Text Only | Print | Product List | Glossary On
Versions: 1 2 3 4 5 6 7 8 9 10 11 12 13 14 15 16 17 18 19 20 21 22 23
000
FTAK31 PAFA 310603 AAA
TAFAOR
TAF AMD
PAOR 310603Z 3106/0106 32012G18KT 3SM -SN BR SCT015 BKN030 OVC070
     FM311200 30009KT 6SM BR OVC015
     FM312100 10004KT P6SM BKN025 BKN050
     FM010000 VRB03KT P6SM SCT025 BKN050=

USA.gov is the U.S. government's official web portal to all federal, state and local government web resources and services.